sensor_id;sensor_type;location;lat;lon;timestamp;pressure;altitude;pressure_sealevel;temperature;humidity
62152;BME280;48139;47.474;19.034;2023-04-03T03:41:29;100396.37;;;5.93;85.60
62152;BME280;48139;47.474;19.034;2023-04-03T03:44:32;100396.37;;;5.93;85.60
62152;BME280;48139;47.474;19.034;2023-04-03T03:47:35;100387.06;;;5.50;87.38
62152;BME280;48139;47.474;19.034;2023-04-03T03:50:38;100396.56;;;5.51;85.71
62152;BME280;48139;47.474;19.034;2023-04-03T03:53:40;100387.13;;;5.49;85.58
62152;BME280;48139;47.474;19.034;2023-04-03T03:56:43;100391.50;;;5.47;86.72
62152;BME280;48139;47.474;19.034;2023-04-03T03:59:46;100392.47;;;5.43;89.45
62152;BME280;48139;47.474;19.034;2023-04-03T04:02:51;100394.84;;;5.50;88.14
62152;BME280;48139;47.474;19.034;2023-04-03T04:05:58;100390.41;;;5.55;85.30
62152;BME280;48139;47.474;19.034;2023-04-03T04:09:01;100380.25;;;5.46;86.78
62152;BME280;48139;47.474;19.034;2023-04-03T04:12:05;100388.28;;;5.37;87.78
62152;BME280;48139;47.474;19.034;2023-04-03T04:15:10;100394.97;;;5.46;87.78
62152;BME280;48139;47.474;19.034;2023-04-03T04:18:13;100388.94;;;5.45;86.85
62152;BME280;48139;47.474;19.034;2023-04-03T04:21:16;100395.94;;;5.43;87.16
62152;BME280;48139;47.474;19.034;2023-04-03T04:24:19;100392.47;;;5.43;86.13
62152;BME280;48139;47.474;19.034;2023-04-03T04:27:24;100401.94;;;5.44;87.96
62152;BME280;48139;47.474;19.034;2023-04-03T04:30:28;100406.97;;;5.50;87.24
62152;BME280;48139;47.474;19.034;2023-04-03T04:33:30;100409.59;;;5.50;88.49
62152;BME280;48139;47.474;19.034;2023-04-03T04:36:35;100408.66;;;5.52;86.82
62152;BME280;48139;47.474;19.034;2023-04-03T04:39:38;100408.12;;;5.40;85.59
62152;BME280;48139;47.474;19.034;2023-04-03T04:42:42;100407.22;;;5.41;86.50
62152;BME280;48139;47.474;19.034;2023-04-03T04:45:44;100410.03;;;5.32;88.06
62152;BME280;48139;47.474;19.034;2023-04-03T04:48:48;100412.41;;;5.42;87.39
62152;BME280;48139;47.474;19.034;2023-04-03T04:51:51;100413.59;;;5.29;87.51
62152;BME280;48139;47.474;19.034;2023-04-03T04:54:55;100417.66;;;5.39;89.23
62152;BME280;48139;47.474;19.034;2023-04-03T04:57:57;100411.56;;;5.40;87.36
62152;BME280;48139;47.474;19.034;2023-04-03T05:01:05;100417.50;;;5.45;88.53
62152;BME280;48139;47.474;19.034;2023-04-03T05:04:13;100431.19;;;5.52;88.24
62152;BME280;48139;47.474;19.034;2023-04-03T05:07:17;100427.59;;;5.57;87.89
62152;BME280;48139;47.474;19.034;2023-04-03T05:10:20;100426.66;;;5.60;87.14
62152;BME280;48139;47.474;19.034;2023-04-03T05:13:24;100426.53;;;5.64;87.72
62152;BME280;48139;47.474;19.034;2023-04-03T05:16:26;100429.38;;;5.55;87.92
62152;BME280;48139;47.474;19.034;2023-04-03T05:19:30;100435.34;;;5.59;89.26
62152;BME280;48139;47.474;19.034;2023-04-03T05:22:33;100427.31;;;5.68;88.92
62152;BME280;48139;47.474;19.034;2023-04-03T05:25:38;100430.63;;;5.75;88.86
62152;BME280;48139;47.474;19.034;2023-04-03T05:28:41;100428.84;;;5.75;87.52
62152;BME280;48139;47.474;19.034;2023-04-03T05:31:44;100423.78;;;5.71;85.11
62152;BME280;48139;47.474;19.034;2023-04-03T05:34:47;100424.28;;;5.85;85.90
62152;BME280;48139;47.474;19.034;2023-04-03T05:37:50;100424.19;;;5.89;84.25
62152;BME280;48139;47.474;19.034;2023-04-03T05:40:53;100425.56;;;6.02;85.57
62152;BME280;48139;47.474;19.034;2023-04-03T05:43:56;100417.63;;;6.07;85.43
62152;BME280;48139;47.474;19.034;2023-04-03T05:46:59;100421.09;;;6.06;83.25
62152;BME280;48139;47.474;19.034;2023-04-03T05:50:02;100420.37;;;6.01;82.92
62152;BME280;48139;47.474;19.034;2023-04-03T05:53:05;100429.00;;;6.03;83.83
62152;BME280;48139;47.474;19.034;2023-04-03T05:56:08;100432.69;;;5.94;83.26
62152;BME280;48139;47.474;19.034;2023-04-03T05:59:12;100436.56;;;5.78;84.00
62152;BME280;48139;47.474;19.034;2023-04-03T06:02:22;100442.62;;;5.79;84.20
62152;BME280;48139;47.474;19.034;2023-04-03T06:05:25;100448.47;;;6.19;82.47
62152;BME280;48139;47.474;19.034;2023-04-03T06:08:27;100448.34;;;6.84;78.27
62152;BME280;48139;47.474;19.034;2023-04-03T06:11:32;100450.28;;;7.32;76.82
62152;BME280;48139;47.474;19.034;2023-04-03T06:14:35;100444.22;;;7.57;72.89
62152;BME280;48139;47.474;19.034;2023-04-03T06:17:38;100445.00;;;7.61;71.28
62152;BME280;48139;47.474;19.034;2023-04-03T06:20:41;100462.44;;;7.59;70.31
62152;BME280;48139;47.474;19.034;2023-04-03T06:23:44;100460.13;;;7.50;70.98
62152;BME280;48139;47.474;19.034;2023-04-03T06:26:47;100466.59;;;7.38;70.11
62152;BME280;48139;47.474;19.034;2023-04-03T06:29:49;100460.97;;;7.24;70.47
62152;BME280;48139;47.474;19.034;2023-04-03T06:32:52;100456.78;;;7.18;70.80
62152;BME280;48139;47.474;19.034;2023-04-03T06:35:58;100464.16;;;7.32;70.53
62152;BME280;48139;47.474;19.034;2023-04-03T06:39:03;100464.53;;;7.48;70.12
62152;BME280;48139;47.474;19.034;2023-04-03T06:42:05;100457.25;;;7.57;67.81
62152;BME280;48139;47.474;19.034;2023-04-03T06:45:09;100465.00;;;7.60;66.35
62152;BME280;48139;47.474;19.034;2023-04-03T06:48:13;100460.34;;;7.68;66.68
62152;BME280;48139;47.474;19.034;2023-04-03T06:54:22;100470.53;;;8.01;64.05
62152;BME280;48139;47.474;19.034;2023-04-03T06:57:25;100473.97;;;8.03;64.86
62152;BME280;48139;47.474;19.034;2023-04-03T07:00:29;100485.56;;;8.19;63.78
62152;BME280;48139;47.474;19.034;2023-04-03T07:03:32;100482.91;;;8.45;64.34
62152;BME280;48139;47.474;19.034;2023-04-03T07:06:36;100488.25;;;8.66;61.64
62152;BME280;48139;47.474;19.034;2023-04-03T07:09:39;100490.22;;;8.82;62.96
62152;BME280;48139;47.474;19.034;2023-04-03T07:12:44;100490.00;;;8.88;61.89
62152;BME280;48139;47.474;19.034;2023-04-03T07:15:46;100491.66;;;8.91;62.63
62152;BME280;48139;47.474;19.034;2023-04-03T07:18:49;100494.84;;;8.99;58.63
62152;BME280;48139;47.474;19.034;2023-04-03T07:21:52;100495.41;;;9.06;58.48
62152;BME280;48139;47.474;19.034;2023-04-03T07:24:55;100488.75;;;9.20;56.13
62152;BME280;48139;47.474;19.034;2023-04-03T07:27:57;100506.06;;;9.45;57.08
62152;BME280;48139;47.474;19.034;2023-04-03T07:31:08;100500.84;;;9.45;55.08
62152;BME280;48139;47.474;19.034;2023-04-03T07:34:15;100499.22;;;9.42;54.66
62152;BME280;48139;47.474;19.034;2023-04-03T07:37:18;100500.44;;;9.55;54.60
62152;BME280;48139;47.474;19.034;2023-04-03T07:40:20;100504.91;;;9.52;53.12
62152;BME280;48139;47.474;19.034;2023-04-03T07:43:23;100506.94;;;9.45;53.43
62152;BME280;48139;47.474;19.034;2023-04-03T07:46:27;100501.87;;;9.19;53.08
62152;BME280;48139;47.474;19.034;2023-04-03T07:49:30;100511.78;;;9.11;53.04
62152;BME280;48139;47.474;19.034;2023-04-03T07:52:33;100516.69;;;9.18;56.57
62152;BME280;48139;47.474;19.034;2023-04-03T07:55:36;100512.59;;;9.35;55.31
62152;BME280;48139;47.474;19.034;2023-04-03T07:58:44;100517.56;;;9.41;54.16
62152;BME280;48139;47.474;19.034;2023-04-03T08:01:47;100515.25;;;9.33;52.93
62152;BME280;48139;47.474;19.034;2023-04-03T08:04:50;100519.81;;;9.50;55.28
62152;BME280;48139;47.474;19.034;2023-04-03T08:07:53;100524.22;;;9.49;53.30
62152;BME280;48139;47.474;19.034;2023-04-03T08:10:57;100525.19;;;9.47;51.79
62152;BME280;48139;47.474;19.034;2023-04-03T08:14:00;100527.50;;;9.54;53.73
62152;BME280;48139;47.474;19.034;2023-04-03T08:17:04;100518.78;;;9.54;52.74
62152;BME280;48139;47.474;19.034;2023-04-03T08:20:07;100525.47;;;9.61;53.19
62152;BME280;48139;47.474;19.034;2023-04-03T08:23:11;100525.91;;;9.72;53.99
62152;BME280;48139;47.474;19.034;2023-04-03T08:26:16;100529.50;;;9.90;51.65
62152;BME280;48139;47.474;19.034;2023-04-03T08:29:19;100525.00;;;9.93;51.29
62152;BME280;48139;47.474;19.034;2023-04-03T08:32:23;100537.50;;;9.87;49.97
62152;BME280;48139;47.474;19.034;2023-04-03T08:35:25;100534.03;;;9.86;49.69
62152;BME280;48139;47.474;19.034;2023-04-03T08:38:28;100537.72;;;9.81;50.22
62152;BME280;48139;47.474;19.034;2023-04-03T08:41:40;100530.97;;;9.97;51.77
62152;BME280;48139;47.474;19.034;2023-04-03T08:44:54;100529.25;;;10.18;49.39
62152;BME280;48139;47.474;19.034;2023-04-03T08:48:12;100527.72;;;10.32;49.84
62152;BME280;48139;47.474;19.034;2023-04-03T08:51:20;100533.78;;;10.73;47.17
62152;BME280;48139;47.474;19.034;2023-04-03T08:54:35;100528.63;;;10.90;47.01
62152;BME280;48139;47.474;19.034;2023-04-03T08:57:41;100524.84;;;11.33;44.14
62152;BME280;48139;47.474;19.034;2023-04-03T09:00:51;100527.72;;;11.46;46.58
62152;BME280;48139;47.474;19.034;2023-04-03T09:03:54;100524.06;;;11.31;45.34
62152;BME280;48139;47.474;19.034;2023-04-03T09:07:06;100527.34;;;11.37;43.57
62152;BME280;48139;47.474;19.034;2023-04-03T09:10:14;100527.81;;;11.81;45.69
62152;BME280;48139;47.474;19.034;2023-04-03T09:16:51;100533.16;;;11.60;43.26
62152;BME280;48139;47.474;19.034;2023-04-03T09:20:03;100533.75;;;11.48;42.54
62152;BME280;48139;47.474;19.034;2023-04-03T09:23:33;100543.19;;;11.69;42.61
62152;BME280;48139;47.474;19.034;2023-04-03T09:26:42;100534.06;;;12.12;40.62
62152;BME280;48139;47.474;19.034;2023-04-03T09:29:47;100541.78;;;12.33;42.18
62152;BME280;48139;47.474;19.034;2023-04-03T09:32:54;100542.34;;;12.39;40.53
62152;BME280;48139;47.474;19.034;2023-04-03T09:35:57;100538.25;;;12.34;42.01
62152;BME280;48139;47.474;19.034;2023-04-03T09:39:05;100534.34;;;12.58;41.16
62152;BME280;48139;47.474;19.034;2023-04-03T09:42:20;100545.13;;;12.69;40.86
62152;BME280;48139;47.474;19.034;2023-04-03T09:45:31;100533.38;;;13.25;40.26
62152;BME280;48139;47.474;19.034;2023-04-03T09:48:34;100535.19;;;13.86;39.67
62152;BME280;48139;47.474;19.034;2023-04-03T09:51:37;100532.44;;;13.42;38.58
62152;BME280;48139;47.474;19.034;2023-04-03T09:54:40;100535.50;;;13.34;39.22
62152;BME280;48139;47.474;19.034;2023-04-03T09:57:45;100520.28;;;12.92;39.72
62152;BME280;48139;47.474;19.034;2023-04-03T10:00:57;100528.91;;;12.78;40.58
62152;BME280;48139;47.474;19.034;2023-04-03T10:04:18;100515.56;;;13.14;39.85
62152;BME280;48139;47.474;19.034;2023-04-03T10:07:33;100515.72;;;13.43;38.29
62152;BME280;48139;47.474;19.034;2023-04-03T10:10:37;100528.19;;;13.39;39.44
62152;BME280;48139;47.474;19.034;2023-04-03T10:13:57;100519.38;;;13.40;38.97
62152;BME280;48139;47.474;19.034;2023-04-03T10:20:46;100523.03;;;12.40;40.01
62152;BME280;48139;47.474;19.034;2023-04-03T10:24:09;100524.50;;;11.77;42.11
62152;BME280;48139;47.474;19.034;2023-04-03T10:30:48;100526.50;;;10.99;44.61
62152;BME280;48139;47.474;19.034;2023-04-03T10:34:06;100529.75;;;10.85;43.51
62152;BME280;48139;47.474;19.034;2023-04-03T10:37:27;100535.44;;;10.56;46.58
62152;BME280;48139;47.474;19.034;2023-04-03T10:40:42;100528.03;;;10.65;43.89
62152;BME280;48139;47.474;19.034;2023-04-03T10:47:07;100520.66;;;10.73;47.34
62152;BME280;48139;47.474;19.034;2023-04-03T10:57:05;100524.06;;;10.94;45.48
62152;BME280;48139;47.474;19.034;2023-04-03T11:00:40;100518.69;;;10.97;44.92
62152;BME280;48139;47.474;19.034;2023-04-03T11:03:50;100520.47;;;10.97;44.46
62152;BME280;48139;47.474;19.034;2023-04-03T11:07:56;100523.16;;;10.95;44.44
62152;BME280;48139;47.474;19.034;2023-04-03T11:10:39;100518.53;;;10.81;44.06
62152;BME280;48139;47.474;19.034;2023-04-03T11:13:54;100517.53;;;10.65;43.92
62152;BME280;48139;47.474;19.034;2023-04-03T11:20:25;100514.59;;;10.91;44.76
62152;BME280;48139;47.474;19.034;2023-04-03T11:23:39;100514.44;;;10.95;43.60
62152;BME280;48139;47.474;19.034;2023-04-03T11:26:52;100509.97;;;10.97;43.53
62152;BME280;48139;47.474;19.034;2023-04-03T11:29:56;100506.72;;;11.10;43.14
62152;BME280;48139;47.474;19.034;2023-04-03T11:37:24;100491.47;;;11.18;42.71
62152;BME280;48139;47.474;19.034;2023-04-03T11:39:57;100486.59;;;11.11;41.48
62152;BME280;48139;47.474;19.034;2023-04-03T11:43:20;100482.69;;;11.19;42.02
62152;BME280;48139;47.474;19.034;2023-04-03T11:46:53;100484.37;;;11.20;41.78
62152;BME280;48139;47.474;19.034;2023-04-03T11:50:03;100485.53;;;11.15;41.21
62152;BME280;48139;47.474;19.034;2023-04-03T11:59:37;100490.38;;;11.41;41.50
62152;BME280;48139;47.474;19.034;2023-04-03T12:02:40;100490.97;;;11.29;41.32
62152;BME280;48139;47.474;19.034;2023-04-03T12:12:30;100477.87;;;11.29;40.70
62152;BME280;48139;47.474;19.034;2023-04-03T12:25:41;100473.81;;;10.86;43.20
62152;BME280;48139;47.474;19.034;2023-04-03T12:28:42;100470.22;;;11.06;42.14
62152;BME280;48139;47.474;19.034;2023-04-03T12:31:56;100465.28;;;11.00;41.14
62152;BME280;48139;47.474;19.034;2023-04-03T12:39:06;100469.25;;;11.08;41.89
62152;BME280;48139;47.474;19.034;2023-04-03T12:42:51;100474.37;;;11.28;40.76
62152;BME280;48139;47.474;19.034;2023-04-03T12:49:22;100458.59;;;11.47;40.48
62152;BME280;48139;47.474;19.034;2023-04-03T12:52:45;100462.03;;;11.49;40.27
62152;BME280;48139;47.474;19.034;2023-04-03T12:55:53;100459.81;;;11.40;39.86
62152;BME280;48139;47.474;19.034;2023-04-03T13:02:24;100450.56;;;11.50;40.36
62152;BME280;48139;47.474;19.034;2023-04-03T13:05:28;100449.03;;;11.63;39.73
62152;BME280;48139;47.474;19.034;2023-04-03T13:08:30;100447.81;;;11.53;40.53
62152;BME280;48139;47.474;19.034;2023-04-03T13:11:34;100442.81;;;11.49;41.00
62152;BME280;48139;47.474;19.034;2023-04-03T13:14:38;100440.25;;;11.64;40.14
62152;BME280;48139;47.474;19.034;2023-04-03T13:17:42;100434.03;;;11.84;42.67
62152;BME280;48139;47.474;19.034;2023-04-03T13:20:44;100438.91;;;11.92;40.95
62152;BME280;48139;47.474;19.034;2023-04-03T13:23:52;100430.16;;;11.91;41.28
62152;BME280;48139;47.474;19.034;2023-04-03T13:27:16;100421.38;;;11.92;40.98
62152;BME280;48139;47.474;19.034;2023-04-03T13:30:29;100427.75;;;12.04;39.87
62152;BME280;48139;47.474;19.034;2023-04-03T13:33:34;100418.53;;;12.12;40.13
62152;BME280;48139;47.474;19.034;2023-04-03T13:36:44;100423.34;;;12.37;38.07
62152;BME280;48139;47.474;19.034;2023-04-03T13:39:58;100424.44;;;12.33;38.04
62152;BME280;48139;47.474;19.034;2023-04-03T13:43:16;100421.78;;;12.18;38.23
62152;BME280;48139;47.474;19.034;2023-04-03T13:46:21;100425.25;;;11.85;38.71
62152;BME280;48139;47.474;19.034;2023-04-03T13:53:02;100424.78;;;11.77;41.58
62152;BME280;48139;47.474;19.034;2023-04-03T13:56:09;100418.22;;;11.86;39.40
62152;BME280;48139;47.474;19.034;2023-04-03T14:02:38;100405.28;;;11.64;39.75
62152;BME280;48139;47.474;19.034;2023-04-03T14:05:41;100407.59;;;11.70;40.51
62152;BME280;48139;47.474;19.034;2023-04-03T14:08:45;100398.88;;;11.69;39.99
62152;BME280;48139;47.474;19.034;2023-04-03T14:11:50;100396.34;;;11.68;39.06
62152;BME280;48139;47.474;19.034;2023-04-03T14:14:54;100402.28;;;11.71;40.49
62152;BME280;48139;47.474;19.034;2023-04-03T14:17:58;100402.06;;;11.59;40.90
62152;BME280;48139;47.474;19.034;2023-04-03T14:21:04;100399.25;;;11.62;42.77
62152;BME280;48139;47.474;19.034;2023-04-03T14:24:07;100395.34;;;11.70;38.88
62152;BME280;48139;47.474;19.034;2023-04-03T14:27:34;100396.87;;;11.57;39.09
62152;BME280;48139;47.474;19.034;2023-04-03T14:30:37;100388.56;;;11.66;39.08
62152;BME280;48139;47.474;19.034;2023-04-03T14:33:40;100396.72;;;11.43;39.20
62152;BME280;48139;47.474;19.034;2023-04-03T14:36:44;100399.50;;;11.23;40.35
62152;BME280;48139;47.474;19.034;2023-04-03T14:39:47;100393.63;;;11.18;40.79
62152;BME280;48139;47.474;19.034;2023-04-03T14:42:50;100401.66;;;11.32;40.62
62152;BME280;48139;47.474;19.034;2023-04-03T14:45:53;100399.31;;;11.26;39.95
62152;BME280;48139;47.474;19.034;2023-04-03T14:48:56;100400.66;;;11.17;40.72
62152;BME280;48139;47.474;19.034;2023-04-03T14:51:58;100401.88;;;11.27;40.14
62152;BME280;48139;47.474;19.034;2023-04-03T14:55:04;100404.13;;;11.35;41.73
62152;BME280;48139;47.474;19.034;2023-04-03T14:58:12;100401.59;;;11.33;41.35
62152;BME280;48139;47.474;19.034;2023-04-03T15:01:17;100405.59;;;11.23;40.45
62152;BME280;48139;47.474;19.034;2023-04-03T15:04:20;100402.13;;;11.23;40.50
62152;BME280;48139;47.474;19.034;2023-04-03T15:07:25;100404.31;;;11.13;42.28
62152;BME280;48139;47.474;19.034;2023-04-03T15:10:30;100397.94;;;11.19;40.28
62152;BME280;48139;47.474;19.034;2023-04-03T15:13:33;100404.75;;;11.23;39.92
62152;BME280;48139;47.474;19.034;2023-04-03T15:29:40;100407.72;;;10.42;42.57
62152;BME280;48139;47.474;19.034;2023-04-03T15:32:43;100403.50;;;10.19;43.67
62152;BME280;48139;47.474;19.034;2023-04-03T15:35:47;100388.75;;;9.98;42.47
62152;BME280;48139;47.474;19.034;2023-04-03T15:38:50;100393.03;;;9.80;42.11
62152;BME280;48139;47.474;19.034;2023-04-03T15:41:53;100400.41;;;9.70;43.56
62152;BME280;48139;47.474;19.034;2023-04-03T15:44:56;100400.91;;;9.58;43.36
62152;BME280;48139;47.474;19.034;2023-04-03T15:47:59;100400.97;;;9.57;44.06
